createdAt,value
2018-12-20T00:01:23.266Z,26.62
2018-12-20T00:03:50.900Z,30.97
2018-12-20T00:06:18.482Z,26.25
2018-12-20T00:08:46.104Z,27.20
2018-12-20T00:11:13.638Z,29.90
2018-12-20T00:13:41.169Z,32.60
2018-12-20T00:16:08.794Z,31.33
2018-12-20T00:18:36.371Z,37.08
2018-12-20T00:21:03.893Z,28.73
2018-12-20T00:23:31.379Z,34.45
2018-12-20T00:25:59.017Z,30.12
2018-12-20T00:28:26.641Z,37.85
2018-12-20T00:30:54.242Z,32.67
2018-12-20T00:33:21.901Z,28.23
2018-12-20T00:35:49.562Z,34.27
2018-12-20T00:38:17.216Z,40.23
2018-12-20T00:40:44.721Z,30.88
2018-12-20T00:43:12.327Z,34.15
2018-12-20T00:45:39.858Z,29.80
2018-12-20T00:48:07.477Z,31.25
2018-12-20T00:50:35.070Z,27.48
2018-12-20T00:53:02.565Z,35.63
2018-12-20T00:55:30.164Z,23.10
2018-12-20T00:57:57.703Z,27.50
2018-12-20T01:00:25.335Z,25.55
2018-12-20T01:02:55.356Z,24.80
2018-12-20T01:05:22.480Z,29.40
2018-12-20T01:07:50.000Z,34.00
2018-12-20T01:10:17.794Z,27.15
2018-12-20T01:12:45.529Z,29.10
2018-12-20T01:15:13.166Z,27.05
2018-12-20T01:17:40.749Z,23.92
2018-12-20T01:20:08.866Z,26.95
2018-12-20T01:22:36.851Z,25.52
2018-12-20T01:25:04.603Z,25.05
2018-12-20T01:27:32.225Z,23.05
2018-12-20T01:30:00.039Z,25.85
2018-12-20T01:32:27.640Z,29.50
2018-12-20T01:34:55.294Z,27.27
2018-12-20T01:37:22.874Z,29.77
2018-12-20T01:39:50.373Z,28.32
2018-12-20T01:42:17.934Z,27.05
2018-12-20T01:44:53.331Z,28.25
2018-12-20T01:47:15.188Z,26.52
2018-12-20T01:49:42.938Z,28.55
2018-12-20T01:52:10.562Z,29.15
2018-12-20T01:54:38.052Z,31.00
2018-12-20T01:57:05.731Z,31.10
2018-12-20T01:59:33.374Z,27.30
2018-12-20T02:02:01.150Z,34.13
2018-12-20T02:04:28.968Z,33.48
2018-12-20T02:06:56.550Z,33.38
2018-12-20T02:09:24.223Z,32.98
2018-12-20T02:11:51.932Z,26.73
2018-12-20T02:14:19.538Z,28.90
2018-12-20T02:16:47.140Z,27.22
2018-12-20T02:19:14.734Z,30.82
2018-12-20T02:21:42.283Z,29.35
2018-12-20T02:24:09.863Z,30.00
2018-12-20T02:26:37.834Z,24.32
2018-12-20T02:29:05.454Z,28.75
2018-12-20T02:31:33.397Z,30.15
2018-12-20T02:34:01.382Z,28.40
2018-12-20T02:36:29.232Z,31.05
2018-12-20T02:38:56.769Z,26.35
2018-12-20T02:41:24.321Z,26.62
2018-12-20T02:43:52.945Z,26.15
2018-12-20T02:46:20.533Z,24.82
2018-12-20T02:48:48.024Z,27.13
2018-12-20T02:51:15.566Z,27.37
2018-12-20T02:53:43.361Z,23.98
2018-12-20T02:56:10.888Z,27.82
2018-12-20T02:58:38.629Z,24.20
2018-12-20T03:01:06.534Z,29.50
2018-12-20T03:03:34.247Z,30.17
2018-12-20T03:06:02.126Z,27.00
2018-12-20T03:08:29.936Z,22.73
2018-12-20T03:10:57.924Z,30.48
2018-12-20T03:13:25.771Z,25.00
2018-12-20T03:15:53.347Z,28.10
2018-12-20T03:20:55.078Z,28.92
2018-12-20T03:23:22.697Z,22.22
2018-12-20T03:25:50.407Z,24.67
2018-12-20T03:28:18.235Z,25.55
2018-12-20T03:30:45.978Z,26.93
2018-12-20T03:33:13.581Z,26.62
2018-12-20T03:35:41.097Z,24.57
2018-12-20T03:38:08.811Z,23.90
2018-12-20T03:40:36.475Z,24.45
2018-12-20T03:43:04.220Z,25.68
2018-12-20T03:45:32.107Z,21.85
2018-12-20T03:47:59.756Z,20.77
2018-12-20T03:50:27.620Z,20.52
2018-12-20T03:52:55.259Z,23.65
2018-12-20T03:55:23.334Z,23.67
2018-12-20T03:57:51.092Z,21.37
2018-12-20T04:00:18.762Z,22.48
2018-12-20T04:02:46.399Z,21.87
2018-12-20T04:05:13.920Z,22.87
2018-12-20T04:07:41.635Z,21.87
2018-12-20T04:10:09.507Z,25.70
2018-12-20T04:12:37.413Z,22.15
2018-12-20T04:15:05.212Z,23.60
2018-12-20T04:17:33.044Z,23.83
2018-12-20T04:20:00.719Z,24.15
2018-12-20T04:22:28.361Z,22.20
2018-12-20T04:24:55.905Z,23.60
2018-12-20T04:27:23.495Z,24.30
2018-12-20T04:29:51.081Z,21.85
2018-12-20T04:32:18.624Z,24.85
2018-12-20T04:34:46.217Z,22.25
2018-12-20T04:37:14.259Z,25.30
2018-12-20T04:39:42.118Z,21.85
2018-12-20T04:42:09.714Z,23.45
2018-12-20T04:44:37.419Z,25.60
2018-12-20T04:47:05.061Z,23.27
2018-12-20T04:49:32.720Z,26.20
2018-12-20T04:52:00.827Z,24.63
2018-12-20T04:54:28.676Z,24.60
2018-12-20T04:56:56.465Z,27.35
2018-12-20T04:59:24.145Z,23.30
2018-12-20T05:01:52.125Z,21.75
2018-12-20T05:04:20.091Z,23.02
2018-12-20T05:06:47.923Z,23.55
2018-12-20T05:09:15.609Z,23.15
2018-12-20T05:11:43.355Z,22.87
2018-12-20T05:14:11.069Z,24.32
2018-12-20T05:16:38.557Z,26.02
2018-12-20T05:19:06.215Z,23.07
2018-12-20T05:21:33.779Z,21.65
2018-12-20T05:24:01.407Z,25.35
2018-12-20T05:26:28.984Z,21.90
2018-12-20T05:28:56.531Z,25.68
2018-12-20T05:31:24.049Z,25.45
2018-12-20T05:33:51.620Z,29.25
2018-12-20T05:36:19.171Z,23.30
2018-12-20T05:38:46.794Z,23.98
2018-12-20T05:41:14.623Z,20.23
2018-12-20T05:43:42.390Z,24.77
2018-12-20T05:46:10.145Z,28.52
2018-12-20T05:48:37.691Z,22.10
2018-12-20T05:51:05.470Z,22.48
2018-12-20T05:53:33.118Z,21.02
2018-12-20T05:56:00.632Z,23.38
2018-12-20T05:58:28.243Z,21.25
2018-12-20T06:00:55.954Z,21.90
2018-12-20T06:03:23.805Z,24.15
2018-12-20T06:05:51.395Z,23.75
2018-12-20T06:08:19.259Z,19.75
2018-12-20T06:10:46.930Z,31.62
2018-12-20T06:13:14.571Z,25.02
2018-12-20T06:15:42.363Z,22.95
2018-12-20T06:18:10.327Z,21.60
2018-12-20T06:20:38.013Z,24.20
2018-12-20T06:23:05.632Z,21.97
2018-12-20T06:25:33.979Z,23.52
2018-12-20T06:28:01.589Z,27.48
2018-12-20T06:30:29.092Z,26.33
2018-12-20T06:32:56.632Z,21.73
2018-12-20T06:35:24.112Z,25.80
2018-12-20T06:37:51.618Z,24.65
2018-12-20T06:40:19.163Z,23.60
2018-12-20T06:42:46.687Z,21.00
2018-12-20T06:45:14.199Z,25.20
2018-12-20T06:47:41.736Z,20.60
2018-12-20T06:50:10.271Z,26.82
2018-12-20T06:52:38.122Z,19.80
2018-12-20T06:55:05.707Z,19.35
2018-12-20T06:57:33.381Z,19.57
2018-12-20T07:00:01.188Z,21.82
2018-12-20T07:02:28.788Z,20.00
2018-12-20T07:04:56.311Z,22.75
2018-12-20T07:07:23.939Z,21.05
2018-12-20T07:09:51.442Z,20.37
2018-12-20T07:12:18.998Z,19.67
2018-12-20T07:14:46.548Z,17.80
2018-12-20T07:17:14.074Z,18.27
2018-12-20T07:19:41.803Z,21.85
2018-12-20T07:22:09.331Z,24.32
2018-12-20T07:24:36.883Z,22.02
2018-12-20T07:27:04.475Z,22.50
2018-12-20T07:29:32.022Z,25.37
2018-12-20T07:31:59.550Z,19.98
2018-12-20T07:34:27.125Z,21.27
2018-12-20T07:36:54.664Z,21.85
2018-12-20T07:39:22.220Z,22.48
2018-12-20T07:41:49.735Z,21.62
2018-12-20T07:44:17.291Z,22.32
2018-12-20T07:46:44.813Z,20.85
2018-12-20T07:49:12.308Z,18.80
2018-12-20T07:51:39.867Z,20.85
2018-12-20T07:54:07.407Z,22.50
2018-12-20T07:56:34.979Z,19.67
2018-12-20T07:59:02.612Z,19.25
2018-12-20T08:01:30.242Z,21.33
2018-12-20T08:03:57.748Z,21.85
2018-12-20T08:06:25.317Z,17.23
2018-12-20T08:08:52.881Z,23.73
2018-12-20T08:11:20.456Z,18.82
2018-12-20T08:13:47.923Z,16.87
2018-12-20T08:16:15.472Z,18.55
2018-12-20T08:18:43.056Z,17.70
2018-12-20T08:21:10.600Z,17.25
2018-12-20T08:23:38.079Z,18.95
2018-12-20T08:26:05.595Z,19.15
2018-12-20T08:28:33.127Z,16.10
2018-12-20T08:31:00.684Z,16.60
2018-12-20T08:33:28.225Z,17.27
2018-12-20T08:35:55.777Z,18.55
2018-12-20T08:38:23.302Z,19.27
2018-12-20T08:40:50.828Z,18.17
2018-12-20T08:43:18.337Z,19.77
2018-12-20T08:45:45.851Z,19.82
2018-12-20T08:48:13.395Z,21.20
2018-12-20T08:50:40.902Z,23.15
2018-12-20T08:53:08.446Z,17.30
2018-12-20T08:55:35.981Z,16.40
2018-12-20T08:58:03.461Z,15.00
2018-12-20T09:00:30.968Z,18.90
2018-12-20T09:02:58.499Z,14.60
2018-12-20T09:05:26.115Z,16.67
2018-12-20T09:07:53.619Z,19.45
2018-12-20T09:10:23.122Z,18.85
2018-12-20T09:12:50.616Z,15.40
2018-12-20T09:15:18.180Z,15.60
2018-12-20T09:17:45.720Z,14.78
2018-12-20T09:20:13.343Z,14.50
2018-12-20T09:22:41.776Z,16.70
2018-12-20T09:25:09.292Z,18.45
2018-12-20T09:27:36.784Z,18.32
2018-12-20T09:30:06.179Z,14.85
2018-12-20T09:32:33.737Z,17.02
2018-12-20T09:35:01.223Z,16.93
2018-12-20T09:37:29.133Z,18.87
2018-12-20T09:39:56.719Z,18.77
2018-12-20T09:42:24.430Z,13.45
2018-12-20T09:44:51.928Z,17.00
2018-12-20T09:47:25.217Z,15.40
2018-12-20T09:49:52.681Z,17.17
2018-12-20T09:52:20.212Z,14.70
2018-12-20T09:54:47.719Z,16.42
2018-12-20T09:57:15.260Z,17.32
2018-12-20T09:59:42.766Z,13.18
2018-12-20T10:02:10.264Z,12.90
2018-12-20T10:04:37.808Z,11.18
2018-12-20T10:07:05.797Z,13.30
2018-12-20T10:09:33.324Z,10.88
2018-12-20T10:12:00.798Z,19.90
2018-12-20T10:14:28.346Z,12.28
2018-12-20T10:16:55.913Z,13.32
2018-12-20T10:19:23.540Z,15.20
2018-12-20T10:21:51.049Z,18.32
2018-12-20T10:24:18.580Z,20.52
2018-12-20T10:26:46.124Z,13.08
2018-12-20T10:29:13.721Z,17.70
2018-12-20T10:31:41.233Z,16.82
2018-12-20T10:34:08.712Z,16.02
2018-12-20T10:36:36.363Z,12.53
2018-12-20T10:39:06.310Z,10.65
2018-12-20T10:41:33.844Z,10.10
2018-12-20T10:44:01.330Z,14.05
2018-12-20T10:46:28.968Z,8.30
2018-12-20T10:48:56.479Z,9.83
2018-12-20T10:51:23.996Z,8.10
2018-12-20T10:53:51.499Z,10.78
2018-12-20T10:56:18.996Z,11.57
2018-12-20T10:58:46.511Z,7.30
2018-12-20T11:04:27.515Z,6.28
2018-12-20T11:07:00.773Z,5.12
2018-12-20T11:09:34.039Z,6.45
2018-12-20T11:12:07.442Z,7.22
2018-12-20T11:14:35.164Z,5.58
2018-12-20T11:17:02.692Z,6.08
2018-12-20T11:19:31.219Z,8.45
2018-12-20T11:21:58.758Z,7.65
2018-12-20T11:24:26.284Z,8.43
2018-12-20T11:26:53.807Z,6.70
2018-12-20T11:29:21.312Z,8.43
2018-12-20T11:31:48.860Z,7.42
2018-12-20T11:34:16.371Z,6.03
2018-12-20T11:36:43.913Z,6.00
2018-12-20T11:39:11.416Z,5.78
2018-12-20T11:41:39.769Z,6.55
2018-12-20T11:44:07.433Z,7.37
2018-12-20T11:46:35.015Z,8.35
2018-12-20T11:49:02.481Z,6.95
2018-12-20T11:51:30.065Z,5.65
2018-12-20T11:53:57.754Z,5.12
2018-12-20T11:56:25.283Z,5.80
2018-12-20T11:58:52.828Z,8.93
2018-12-20T12:01:20.304Z,7.33
2018-12-20T12:03:47.810Z,7.25
2018-12-20T12:06:15.376Z,11.75
2018-12-20T12:08:42.973Z,4.85
2018-12-20T12:11:10.604Z,4.40
2018-12-20T12:13:38.189Z,5.22
2018-12-20T12:16:05.716Z,5.65
2018-12-20T12:18:33.205Z,3.50
2018-12-20T12:21:00.715Z,3.60
2018-12-20T12:23:28.272Z,2.45
2018-12-20T12:25:55.964Z,3.42
2018-12-20T12:28:23.502Z,1.82
2018-12-20T12:30:51.063Z,1.57
2018-12-20T12:33:18.690Z,2.35
2018-12-20T12:35:46.160Z,2.25
2018-12-20T12:38:13.697Z,1.72
2018-12-20T12:40:41.249Z,2.22
2018-12-20T12:43:08.738Z,1.52
2018-12-20T12:45:36.318Z,1.62
2018-12-20T12:48:04.089Z,1.50
2018-12-20T12:50:31.742Z,2.90
2018-12-20T12:52:59.341Z,1.70
2018-12-20T12:55:26.962Z,1.77
2018-12-20T12:57:54.521Z,4.53
2018-12-20T13:00:22.680Z,3.58
2018-12-20T13:02:50.187Z,2.10
2018-12-20T13:05:17.839Z,2.20
2018-12-20T13:07:45.340Z,1.37
2018-12-20T13:10:12.861Z,2.40
2018-12-20T13:12:40.394Z,1.77
2018-12-20T13:15:10.673Z,2.58
2018-12-20T13:17:38.301Z,1.25
2018-12-20T13:20:08.325Z,2.40
2018-12-20T13:22:35.874Z,2.83
2018-12-20T13:25:03.758Z,1.65
2018-12-20T13:27:31.540Z,2.20
2018-12-20T13:29:59.019Z,2.52
2018-12-20T13:32:26.543Z,2.00
2018-12-20T13:34:54.038Z,1.90
2018-12-20T13:37:21.624Z,1.80
2018-12-20T13:39:49.344Z,1.82
2018-12-20T13:42:16.973Z,2.00
2018-12-20T13:44:44.442Z,1.80
2018-12-20T13:47:11.935Z,2.17
2018-12-20T13:49:39.467Z,2.08
2018-12-20T13:52:07.001Z,4.40
2018-12-20T13:54:34.522Z,2.45
2018-12-20T13:57:02.122Z,4.80
2018-12-20T13:59:29.700Z,2.72
2018-12-20T14:01:57.434Z,2.20
2018-12-20T14:04:24.896Z,2.70
2018-12-20T14:06:52.429Z,2.33
2018-12-20T14:09:21.064Z,2.00
2018-12-20T14:11:48.603Z,3.25
2018-12-20T14:14:16.228Z,2.45
2018-12-20T14:16:43.709Z,3.27
2018-12-20T14:19:11.229Z,3.45
2018-12-20T14:21:38.840Z,2.80
2018-12-20T14:24:06.380Z,2.77
2018-12-20T14:26:33.883Z,3.22
2018-12-20T14:29:01.398Z,3.50
2018-12-20T14:31:28.937Z,2.95
2018-12-20T14:33:56.516Z,2.40
2018-12-20T14:36:24.061Z,2.62
2018-12-20T14:38:51.664Z,2.60
2018-12-20T14:41:19.219Z,4.35
2018-12-20T14:43:46.710Z,2.70
2018-12-20T14:46:14.238Z,2.60
2018-12-20T14:48:41.891Z,3.00
2018-12-20T14:51:09.390Z,3.83
2018-12-20T14:53:36.951Z,4.72
2018-12-20T14:56:04.555Z,2.70
2018-12-20T14:58:32.112Z,2.12
2018-12-20T15:00:59.655Z,2.10
2018-12-20T15:03:27.178Z,1.98
2018-12-20T15:05:54.712Z,2.90
2018-12-20T15:08:22.182Z,2.10
2018-12-20T15:10:49.886Z,3.85
2018-12-20T15:13:17.431Z,7.00
2018-12-20T15:15:44.945Z,4.60
2018-12-20T15:18:12.435Z,2.30
2018-12-20T15:20:40.672Z,2.10
2018-12-20T15:23:09.933Z,3.42
2018-12-20T15:25:37.464Z,5.15
2018-12-20T15:28:05.083Z,4.15
2018-12-20T15:30:32.631Z,3.33
2018-12-20T15:33:00.090Z,2.90
2018-12-20T15:35:27.683Z,3.20
2018-12-20T15:37:57.183Z,3.05
2018-12-20T15:40:24.802Z,3.15
2018-12-20T15:42:52.367Z,2.20
2018-12-20T15:45:19.889Z,6.05
2018-12-20T15:47:47.419Z,4.42
2018-12-20T15:50:14.900Z,3.75
2018-12-20T15:52:42.507Z,14.55
2018-12-20T15:55:09.995Z,3.85
2018-12-20T15:57:37.601Z,7.30
2018-12-20T16:00:07.811Z,4.15
2018-12-20T16:02:35.378Z,6.15
2018-12-20T16:05:02.982Z,2.98
2018-12-20T16:07:30.493Z,7.28
2018-12-20T16:09:58.944Z,3.67
2018-12-20T16:12:26.947Z,4.85
2018-12-20T16:14:54.530Z,4.45
2018-12-20T16:17:22.137Z,3.37
2018-12-20T16:19:50.281Z,5.72
2018-12-20T16:22:18.835Z,5.40
2018-12-20T16:24:46.387Z,3.98
2018-12-20T16:27:14.448Z,4.70
2018-12-20T16:29:42.895Z,3.30
2018-12-20T16:32:10.431Z,5.40
2018-12-20T16:34:38.004Z,3.77
2018-12-20T16:37:05.817Z,4.10
2018-12-20T16:39:33.386Z,3.55
2018-12-20T16:42:00.991Z,3.83
2018-12-20T16:44:28.484Z,4.80
2018-12-20T16:46:55.974Z,7.10
2018-12-20T16:49:23.527Z,4.47
2018-12-20T16:51:51.012Z,5.60
2018-12-20T16:54:18.517Z,3.25
2018-12-20T16:56:46.130Z,3.85
2018-12-20T16:59:13.614Z,6.30
2018-12-20T17:01:43.094Z,5.30
2018-12-20T17:04:10.586Z,6.17
2018-12-20T17:06:38.063Z,4.30
2018-12-20T17:09:07.075Z,4.08
2018-12-20T17:11:34.624Z,7.17
2018-12-20T17:14:02.282Z,3.83
2018-12-20T17:16:29.783Z,3.80
2018-12-20T17:18:57.263Z,3.35
2018-12-20T17:21:24.788Z,5.58
2018-12-20T17:23:52.335Z,3.80
2018-12-20T17:26:19.889Z,4.05
2018-12-20T17:28:47.399Z,5.10
2018-12-20T17:31:15.091Z,3.92
2018-12-20T17:33:42.742Z,4.25
2018-12-20T17:36:10.458Z,5.67
2018-12-20T17:38:38.069Z,4.70
2018-12-20T17:41:05.699Z,4.33
2018-12-20T17:43:33.373Z,3.42
2018-12-20T17:46:01.122Z,4.00
2018-12-20T17:48:29.390Z,6.42
2018-12-20T17:50:57.375Z,4.85
2018-12-20T17:53:25.253Z,11.28
2018-12-20T17:55:52.906Z,7.75
2018-12-20T17:58:20.725Z,5.80
2018-12-20T18:03:25.998Z,11.83
2018-12-20T18:05:53.595Z,6.53
2018-12-20T18:08:21.234Z,10.58
2018-12-20T18:10:49.389Z,3.75
2018-12-20T18:13:16.921Z,4.83
2018-12-20T18:15:44.484Z,3.37
2018-12-20T18:18:12.084Z,12.98
2018-12-20T18:20:39.949Z,4.22
2018-12-20T18:23:07.510Z,4.17
2018-12-20T18:25:35.089Z,6.08
2018-12-20T18:28:02.631Z,3.33
2018-12-20T18:30:30.191Z,3.98
2018-12-20T18:32:57.695Z,6.10
2018-12-20T18:35:25.301Z,4.58
2018-12-20T18:37:52.867Z,6.12
2018-12-20T18:40:20.388Z,5.75
2018-12-20T18:42:48.006Z,5.95
2018-12-20T18:45:16.512Z,4.97
2018-12-20T18:47:44.041Z,17.12
2018-12-20T18:50:11.638Z,6.97
2018-12-20T18:52:39.164Z,6.75
2018-12-20T18:55:07.358Z,6.20
2018-12-20T18:57:34.865Z,3.98
2018-12-20T19:00:02.652Z,4.90
2018-12-20T19:02:30.285Z,5.05
2018-12-20T19:04:57.820Z,3.98
2018-12-20T19:07:25.331Z,5.40
2018-12-20T19:09:52.917Z,8.88
2018-12-20T19:12:20.494Z,5.60
2018-12-20T19:14:48.841Z,4.55
2018-12-20T19:17:16.445Z,4.62
2018-12-20T19:19:46.028Z,4.53
2018-12-20T19:22:13.804Z,5.95
2018-12-20T19:24:41.411Z,4.60
2018-12-20T19:27:08.933Z,6.17
2018-12-20T19:29:36.563Z,5.83
2018-12-20T19:32:04.120Z,10.35
2018-12-20T19:34:31.676Z,5.80
2018-12-20T19:36:59.272Z,5.50
2018-12-20T19:39:26.801Z,6.33
2018-12-20T19:41:56.257Z,4.53
2018-12-20T19:44:23.903Z,5.62
2018-12-20T19:46:51.456Z,7.12
2018-12-20T19:49:19.057Z,6.62
2018-12-20T19:51:46.588Z,7.62
2018-12-20T19:54:14.261Z,5.58
2018-12-20T19:56:41.808Z,4.33
2018-12-20T19:59:09.308Z,4.72
2018-12-20T20:01:36.886Z,4.60
2018-12-20T20:04:04.405Z,8.80
2018-12-20T20:06:31.983Z,7.95
2018-12-20T20:08:59.844Z,10.90
2018-12-20T20:11:27.412Z,8.13
2018-12-20T20:13:54.910Z,4.78
2018-12-20T20:16:22.508Z,5.80
2018-12-20T20:18:50.163Z,6.00
2018-12-20T20:21:17.755Z,9.45
2018-12-20T20:23:45.421Z,7.17
2018-12-20T20:26:13.464Z,9.55
2018-12-20T20:28:41.998Z,7.58
2018-12-20T20:31:09.667Z,9.80
2018-12-20T20:33:37.258Z,9.15
2018-12-20T20:36:05.019Z,6.50
2018-12-20T20:38:32.512Z,7.92
2018-12-20T20:41:00.985Z,4.80
2018-12-20T20:43:28.470Z,8.50
2018-12-20T20:45:57.092Z,5.30
2018-12-20T20:48:24.649Z,8.03
2018-12-20T20:50:52.174Z,5.78
2018-12-20T20:53:19.666Z,4.92
2018-12-20T20:55:47.258Z,5.33
2018-12-20T20:58:14.790Z,9.10
2018-12-20T21:00:43.504Z,7.53
2018-12-20T21:03:11.161Z,7.45
2018-12-20T21:05:39.354Z,7.12
2018-12-20T21:08:07.167Z,6.55
2018-12-20T21:10:34.851Z,8.23
2018-12-20T21:13:02.459Z,6.28
2018-12-20T21:15:29.994Z,5.83
2018-12-20T21:17:57.500Z,8.58
2018-12-20T21:20:30.644Z,5.37
2018-12-20T21:22:55.453Z,8.15
2018-12-20T21:25:22.963Z,6.12
2018-12-20T21:27:50.935Z,5.87
2018-12-20T21:30:18.594Z,8.45
2018-12-20T21:32:48.870Z,3.85
2018-12-20T21:35:19.374Z,5.17
2018-12-20T21:37:46.936Z,4.83
2018-12-20T21:40:15.709Z,6.40
2018-12-20T21:42:43.311Z,4.55
2018-12-20T21:45:10.958Z,5.50
2018-12-20T21:47:38.735Z,4.83
2018-12-20T21:50:07.815Z,4.58
2018-12-20T21:52:35.382Z,7.55
2018-12-20T21:55:02.943Z,6.25
2018-12-20T21:57:30.492Z,5.50
2018-12-20T22:00:01.339Z,5.05
2018-12-20T22:02:27.627Z,6.45
2018-12-20T22:04:55.129Z,4.62
2018-12-20T22:07:23.350Z,10.40
2018-12-20T22:09:50.906Z,5.72
2018-12-20T22:12:18.429Z,3.95
2018-12-20T22:14:45.996Z,9.98
2018-12-20T22:17:13.524Z,5.05
2018-12-20T22:19:41.102Z,8.03
2018-12-20T22:22:08.697Z,4.58
2018-12-20T22:24:36.244Z,5.92
2018-12-20T22:27:03.762Z,6.47
2018-12-20T22:29:31.308Z,4.20
2018-12-20T22:31:58.791Z,9.18
2018-12-20T22:34:26.437Z,4.78
2018-12-20T22:36:54.029Z,4.95
2018-12-20T22:39:21.575Z,4.58
2018-12-20T22:41:49.152Z,8.43
2018-12-20T22:44:16.653Z,4.85
2018-12-20T22:46:44.212Z,5.58
2018-12-20T22:49:11.706Z,8.10
2018-12-20T22:51:39.351Z,8.88
2018-12-20T22:54:06.909Z,4.55
2018-12-20T22:56:34.433Z,6.55
2018-12-20T22:59:01.997Z,6.87
2018-12-20T23:01:29.538Z,5.50
2018-12-20T23:03:57.052Z,6.65
2018-12-20T23:06:24.576Z,5.17
2018-12-20T23:08:52.204Z,7.42
2018-12-20T23:11:19.822Z,5.58
2018-12-20T23:13:47.371Z,5.55
2018-12-20T23:16:14.912Z,4.50
2018-12-20T23:18:42.908Z,4.55
2018-12-20T23:21:10.483Z,4.72
2018-12-20T23:23:37.971Z,4.47
2018-12-20T23:26:05.487Z,7.17
2018-12-20T23:28:33.016Z,4.62
2018-12-20T23:31:00.747Z,5.30
2018-12-20T23:33:28.335Z,4.28
2018-12-20T23:35:55.873Z,7.45
2018-12-20T23:38:23.534Z,3.75
2018-12-20T23:40:51.098Z,6.58
2018-12-20T23:43:18.731Z,5.40
2018-12-20T23:45:46.335Z,4.12
2018-12-20T23:48:13.822Z,6.00
2018-12-20T23:50:41.335Z,4.37
2018-12-20T23:53:09.009Z,8.35
2018-12-20T23:55:36.578Z,9.30
2018-12-20T23:58:04.148Z,8.38
